SWR84C LSZH-FACT
Flight info
| Callsign | SWR84C |
|---|---|
| Flight time | N/A |
| Altitude | 33000 |
| Route | VEBIT T53 GERSA N850 ODINA DCT EVROG DCT BATOX DCT ABDAB/N0475F340 UL44 TUC UP161 EBA UG362 BARKA/N0477F350 UM2 DJA UB730 DIR UG727 APTEX/N0476F370 UG727 BZ DCT KSA UT943 ANTUX/N0469F390 UT943 IMVEX/N0474F380 UT943 UNLOK/N0469F390 UT943 VEDRY/N0467F400 UN185 OKLOK UQ23 CSV UZ26 ERDAS ERDAS1B |
| Aircraft | A343/H-SDE2E3FGHIJ4J5M1RWXY/LB1D1 |
Departure
| Time | 2026-02-18 21:50 |
|---|---|
| Airport | Zürich Airport (LSZH) |
Arrival
| Time | N/A |
|---|---|
| Airport | Cape Town International Airport (FACT) |
| Time | Latitude | Longitude | Altitude | Speed | Heading |
|---|---|---|---|---|---|
| 2026-02-18 21:16 | 47.46065 | 8.55338 | 1410 ft | 0 kts | 6° |
| 2026-02-18 21:30 | 47.46059 | 8.55337 | 1409 ft | 0 kts | 6° |
| 2026-02-18 21:31 | 47.46051 | 8.55335 | 1410 ft | 3 kts | 6° |
| 2026-02-18 21:32 | 47.46032 | 8.55333 | 1410 ft | 3 kts | 6° |
| 2026-02-18 21:32 | 47.46012 | 8.55329 | 1410 ft | 3 kts | 27° |
| 2026-02-18 21:32 | 47.45996 | 8.55316 | 1410 ft | 3 kts | 32° |
| 2026-02-18 21:32 | 47.45981 | 8.55296 | 1410 ft | 3 kts | 77° |
| 2026-02-18 21:33 | 47.45979 | 8.55280 | 1410 ft | 0 kts | 90° |
| 2026-02-18 21:33 | 47.45979 | 8.55277 | 1410 ft | 0 kts | 96° |
| 2026-02-18 21:40 | 47.45978 | 8.55290 | 1410 ft | 3 kts | 95° |
| 2026-02-18 21:40 | 47.45976 | 8.55343 | 1409 ft | 7 kts | 94° |
| 2026-02-18 21:40 | 47.45969 | 8.55444 | 1410 ft | 14 kts | 96° |
| 2026-02-18 21:41 | 47.45950 | 8.55702 | 1406 ft | 12 kts | 96° |
| 2026-02-18 21:41 | 47.45942 | 8.55816 | 1408 ft | 8 kts | 96° |
| 2026-02-18 21:41 | 47.45938 | 8.55892 | 1415 ft | 9 kts | 94° |
| 2026-02-18 21:42 | 47.45931 | 8.55987 | 1416 ft | 11 kts | 97° |
| 2026-02-18 21:42 | 47.45921 | 8.56117 | 1419 ft | 12 kts | 95° |
| 2026-02-18 21:42 | 47.45913 | 8.56226 | 1415 ft | 9 kts | 98° |
| 2026-02-18 21:42 | 47.45932 | 8.56306 | 1424 ft | 12 kts | 38° |
| 2026-02-18 21:43 | 47.46005 | 8.56320 | 1419 ft | 11 kts | 6° |
| 2026-02-18 21:43 | 47.46021 | 8.56323 | 1418 ft | 0 kts | 5° |
| 2026-02-18 21:45 | 47.46032 | 8.56325 | 1419 ft | 6 kts | 7° |
| 2026-02-18 21:46 | 47.46105 | 8.56341 | 1419 ft | 15 kts | 8° |
| 2026-02-18 21:46 | 47.46220 | 8.56322 | 1418 ft | 16 kts | 326° |
| 2026-02-18 21:46 | 47.46230 | 8.56309 | 1418 ft | 0 kts | 316° |
| 2026-02-18 21:49 | 47.46426 | 8.56040 | 1412 ft | 67 kts | 317° |
| 2026-02-18 21:49 | 47.46908 | 8.55385 | 1400 ft | 119 kts | 317° |
| 2026-02-18 21:49 | 47.47630 | 8.54400 | 1421 ft | 159 kts | 314° |
| 2026-02-18 21:50 | 47.48438 | 8.53238 | 1816 ft | 166 kts | 316° |
| 2026-02-18 21:50 | 47.49336 | 8.52105 | 2310 ft | 174 kts | 324° |
| 2026-02-18 21:50 | 47.50331 | 8.50972 | 2729 ft | 192 kts | 319° |
| 2026-02-18 21:50 | 47.51208 | 8.49330 | 2982 ft | 215 kts | 298° |
| 2026-02-18 21:51 | 47.51646 | 8.47192 | 3281 ft | 227 kts | 276° |
| 2026-02-18 21:51 | 47.51745 | 8.44852 | 3870 ft | 227 kts | 270° |
| 2026-02-18 21:51 | 47.51765 | 8.42537 | 4527 ft | 224 kts | 265° |
| 2026-02-18 21:51 | 47.51433 | 8.40322 | 4909 ft | 219 kts | 241° |
| 2026-02-18 21:52 | 47.50446 | 8.38623 | 5001 ft | 228 kts | 212° |
| 2026-02-18 21:52 | 47.48895 | 8.37723 | 5111 ft | 250 kts | 193° |
| 2026-02-18 21:52 | 47.47151 | 8.37166 | 5533 ft | 260 kts | 191° |
| 2026-02-18 21:52 | 47.45364 | 8.36631 | 6166 ft | 263 kts | 191° |
| 2026-02-18 21:53 | 47.41745 | 8.35505 | 7310 ft | 270 kts | 194° |
| 2026-02-18 21:53 | 47.39979 | 8.34687 | 7871 ft | 270 kts | 209° |
| 2026-02-18 21:53 | 47.38518 | 8.33007 | 8576 ft | 265 kts | 232° |
| 2026-02-18 21:54 | 47.37535 | 8.30735 | 9339 ft | 261 kts | 241° |
| 2026-02-18 21:54 | 47.36695 | 8.28371 | 9964 ft | 262 kts | 243° |
| 2026-02-18 21:54 | 47.35847 | 8.25927 | 10222 ft | 274 kts | 243° |
| 2026-02-18 21:54 | 47.34952 | 8.23360 | 10435 ft | 288 kts | 243° |
| 2026-02-18 21:55 | 47.34006 | 8.20670 | 10626 ft | 301 kts | 242° |
| 2026-02-18 21:55 | 47.33014 | 8.17874 | 10842 ft | 314 kts | 242° |
| 2026-02-18 21:55 | 47.31977 | 8.14963 | 11037 ft | 327 kts | 242° |
| 2026-02-18 21:55 | 47.30907 | 8.11944 | 11323 ft | 336 kts | 242° |
| 2026-02-18 21:56 | 47.29679 | 8.08991 | 11647 ft | 341 kts | 232° |
| 2026-02-18 21:56 | 47.27951 | 8.06616 | 11739 ft | 343 kts | 215° |
| 2026-02-18 21:56 | 47.25759 | 8.05219 | 11716 ft | 349 kts | 197° |
| 2026-02-18 21:56 | 47.23313 | 8.05002 | 11719 ft | 359 kts | 178° |
| 2026-02-18 21:57 | 47.18486 | 8.07303 | 11749 ft | 374 kts | 156° |
| 2026-02-18 21:57 | 47.16398 | 8.09670 | 12083 ft | 388 kts | 137° |
| 2026-02-18 21:57 | 47.14786 | 8.12901 | 12653 ft | 397 kts | 125° |
| 2026-02-18 21:58 | 47.13548 | 8.16563 | 13215 ft | 403 kts | 118° |
| 2026-02-18 21:58 | 47.12476 | 8.20376 | 13695 ft | 406 kts | 117° |
| 2026-02-18 21:58 | 47.11387 | 8.24154 | 14129 ft | 407 kts | 119° |
| 2026-02-18 21:58 | 47.10156 | 8.27915 | 14548 ft | 410 kts | 122° |
| 2026-02-18 21:59 | 47.08809 | 8.31606 | 15003 ft | 412 kts | 121° |
| 2026-02-18 21:59 | 47.07664 | 8.35500 | 15468 ft | 418 kts | 114° |
| 2026-02-18 21:59 | 47.06786 | 8.39593 | 15961 ft | 421 kts | 112° |
| 2026-02-18 21:59 | 47.05716 | 8.43578 | 16461 ft | 419 kts | 118° |
| 2026-02-18 22:00 | 47.04378 | 8.47344 | 16979 ft | 415 kts | 129° |
| 2026-02-18 22:00 | 47.02547 | 8.50539 | 17502 ft | 405 kts | 144° |
| 2026-02-18 22:00 | 47.00248 | 8.52817 | 18023 ft | 394 kts | 160° |
| 2026-02-18 22:00 | 46.97694 | 8.54170 | 18493 ft | 388 kts | 171° |
| 2026-02-18 22:01 | 46.92416 | 8.55327 | 19430 ft | 382 kts | 181° |
| 2026-02-18 22:01 | 46.89797 | 8.55597 | 19907 ft | 381 kts | 182° |
| 2026-02-18 22:01 | 46.87156 | 8.55838 | 20397 ft | 380 kts | 182° |
| 2026-02-18 22:02 | 46.84514 | 8.56106 | 20853 ft | 380 kts | 181° |
| 2026-02-18 22:02 | 46.81882 | 8.56413 | 21351 ft | 377 kts | 181° |
| 2026-02-18 22:02 | 46.79272 | 8.56754 | 21882 ft | 376 kts | 181° |
| 2026-02-18 22:02 | 46.76671 | 8.57118 | 22385 ft | 373 kts | 181° |
| 2026-02-18 22:03 | 46.74091 | 8.57491 | 22918 ft | 372 kts | 181° |
| 2026-02-18 22:03 | 46.71518 | 8.57866 | 23454 ft | 370 kts | 181° |
| 2026-02-18 22:03 | 46.68970 | 8.58235 | 23886 ft | 366 kts | 181° |
| 2026-02-18 22:03 | 46.66460 | 8.58600 | 24336 ft | 360 kts | 182° |
| 2026-02-18 22:04 | 46.63989 | 8.58957 | 24805 ft | 354 kts | 182° |
| 2026-02-18 22:04 | 46.61581 | 8.59300 | 25270 ft | 349 kts | 182° |
| 2026-02-18 22:04 | 46.59174 | 8.59644 | 25781 ft | 344 kts | 183° |
| 2026-02-18 22:04 | 46.56810 | 8.59984 | 26257 ft | 339 kts | 183° |
| 2026-02-18 22:05 | 46.52131 | 8.60644 | 26903 ft | 336 kts | 184° |
| 2026-02-18 22:05 | 46.49804 | 8.60968 | 27114 ft | 336 kts | 184° |
| 2026-02-18 22:05 | 46.47469 | 8.61293 | 27321 ft | 337 kts | 184° |
| 2026-02-18 22:06 | 46.45134 | 8.61619 | 27464 ft | 338 kts | 184° |
| 2026-02-18 22:06 | 46.42787 | 8.61948 | 27559 ft | 340 kts | 184° |
| 2026-02-18 22:06 | 46.40415 | 8.62282 | 27685 ft | 345 kts | 184° |
| 2026-02-18 22:06 | 46.38014 | 8.62615 | 27698 ft | 349 kts | 184° |
| 2026-02-18 22:07 | 46.35575 | 8.62954 | 27726 ft | 354 kts | 183° |
| 2026-02-18 22:07 | 46.33140 | 8.63294 | 27819 ft | 358 kts | 183° |
| 2026-02-18 22:07 | 46.30641 | 8.63647 | 27938 ft | 363 kts | 183° |
| 2026-02-18 22:07 | 46.28115 | 8.64002 | 28030 ft | 367 kts | 183° |
| 2026-02-18 22:08 | 46.22952 | 8.64719 | 28136 ft | 376 kts | 183° |
| 2026-02-18 22:08 | 46.17685 | 8.65461 | 28305 ft | 384 kts | 183° |
| 2026-02-18 22:09 | 46.12295 | 8.66235 | 28492 ft | 395 kts | 181° |
| 2026-02-18 22:09 | 46.09559 | 8.66964 | 28552 ft | 406 kts | 175° |
| 2026-02-18 22:10 | 46.04027 | 8.69110 | 28679 ft | 417 kts | 172° |
| 2026-02-18 22:10 | 45.98410 | 8.71504 | 28827 ft | 426 kts | 172° |
| 2026-02-18 22:11 | 45.92672 | 8.73969 | 28985 ft | 434 kts | 172° |
| 2026-02-18 22:11 | 45.86856 | 8.76434 | 29151 ft | 443 kts | 172° |
| 2026-02-18 22:12 | 45.80891 | 8.78943 | 29327 ft | 450 kts | 172° |
| 2026-02-18 22:12 | 45.74810 | 8.81488 | 29511 ft | 458 kts | 172° |
| 2026-02-18 22:13 | 45.65534 | 8.85366 | 29939 ft | 466 kts | 172° |
| 2026-02-18 22:13 | 45.62421 | 8.86668 | 30158 ft | 466 kts | 172° |
| 2026-02-18 22:13 | 45.59357 | 8.87949 | 30414 ft | 464 kts | 172° |
| 2026-02-18 22:14 | 45.56261 | 8.89242 | 30674 ft | 462 kts | 172° |
| 2026-02-18 22:14 | 45.53136 | 8.90544 | 30913 ft | 462 kts | 172° |
| 2026-02-18 22:14 | 45.50093 | 8.91807 | 31121 ft | 461 kts | 172° |
| 2026-02-18 22:14 | 45.47010 | 8.93085 | 31344 ft | 460 kts | 172° |
| 2026-02-18 22:15 | 45.43933 | 8.94359 | 31561 ft | 459 kts | 173° |
| 2026-02-18 22:15 | 45.40864 | 8.95628 | 31707 ft | 459 kts | 172° |
| 2026-02-18 22:15 | 45.34678 | 8.98172 | 31853 ft | 465 kts | 172° |
| 2026-02-18 22:16 | 45.31576 | 8.99451 | 32066 ft | 463 kts | 172° |
| 2026-02-18 22:16 | 45.28491 | 9.00725 | 32300 ft | 462 kts | 173° |
| 2026-02-18 22:16 | 45.25408 | 9.01996 | 32577 ft | 460 kts | 173° |
| 2026-02-18 22:16 | 45.22331 | 9.03261 | 32781 ft | 460 kts | 173° |
| 2026-02-18 22:17 | 45.16176 | 9.05783 | 32974 ft | 460 kts | 173° |
| 2026-02-18 22:17 | 45.13114 | 9.07040 | 32990 ft | 455 kts | 173° |
| 2026-02-18 22:18 | 45.07091 | 9.09507 | 32994 ft | 452 kts | 173° |
| 2026-02-18 22:18 | 45.01044 | 9.11967 | 32974 ft | 452 kts | 173° |
| 2026-02-18 22:19 | 44.94986 | 9.14429 | 32880 ft | 452 kts | 173° |
| 2026-02-18 22:19 | 44.88932 | 9.16888 | 32880 ft | 452 kts | 173° |
| 2026-02-18 22:20 | 44.82866 | 9.19341 | 32891 ft | 456 kts | 173° |
| 2026-02-18 22:20 | 44.76753 | 9.21812 | 32888 ft | 457 kts | 173° |
| 2026-02-18 22:21 | 44.67625 | 9.25495 | 32892 ft | 457 kts | 173° |
| 2026-02-18 22:21 | 44.61508 | 9.27957 | 32851 ft | 457 kts | 172° |
| 2026-02-18 22:22 | 44.55365 | 9.30417 | 32892 ft | 462 kts | 172° |
| 2026-02-18 22:22 | 44.49149 | 9.32897 | 32890 ft | 464 kts | 172° |
| 2026-02-18 22:23 | 44.42940 | 9.35381 | 32891 ft | 462 kts | 172° |
| 2026-02-18 22:23 | 44.36747 | 9.37852 | 32890 ft | 462 kts | 172° |